sensor_id;sensor_type;location;lat;lon;timestamp;pressure;altitude;pressure_sealevel;temperature;humidity
25855;BME280;13680;49.936;11.344;2022-07-03T00:00:23;97073.78;;;16.81;63.77
25855;BME280;13680;49.936;11.344;2022-07-03T00:02:49;97071.25;;;16.76;63.92
25855;BME280;13680;49.936;11.344;2022-07-03T00:05:14;97063.50;;;16.66;64.23
25855;BME280;13680;49.936;11.344;2022-07-03T00:07:40;97058.97;;;16.58;64.75
25855;BME280;13680;49.936;11.344;2022-07-03T00:10:06;97061.88;;;16.52;64.94
25855;BME280;13680;49.936;11.344;2022-07-03T00:12:31;97064.91;;;16.51;64.97
25855;BME280;13680;49.936;11.344;2022-07-03T00:14:57;97063.19;;;16.46;64.84
25855;BME280;13680;49.936;11.344;2022-07-03T00:17:22;97069.94;;;16.40;64.58
25855;BME280;13680;49.936;11.344;2022-07-03T00:19:48;97069.16;;;16.40;64.92
25855;BME280;13680;49.936;11.344;2022-07-03T00:22:14;97066.16;;;16.32;65.26
25855;BME280;13680;49.936;11.344;2022-07-03T00:24:47;97058.53;;;16.26;65.57
25855;BME280;13680;49.936;11.344;2022-07-03T00:27:15;97057.63;;;16.22;65.60
25855;BME280;13680;49.936;11.344;2022-07-03T00:29:41;97054.41;;;16.19;65.55
25855;BME280;13680;49.936;11.344;2022-07-03T00:32:11;97058.94;;;16.15;65.96
25855;BME280;13680;49.936;11.344;2022-07-03T00:34:37;97058.44;;;16.13;66.01
25855;BME280;13680;49.936;11.344;2022-07-03T00:37:06;97060.81;;;16.15;66.03
25855;BME280;13680;49.936;11.344;2022-07-03T00:39:35;97064.53;;;16.10;65.95
25855;BME280;13680;49.936;11.344;2022-07-03T00:42:02;97069.50;;;16.08;65.66
25855;BME280;13680;49.936;11.344;2022-07-03T00:44:29;97062.19;;;16.00;66.35
25855;BME280;13680;49.936;11.344;2022-07-03T00:46:55;97061.56;;;15.94;66.40
25855;BME280;13680;49.936;11.344;2022-07-03T00:49:23;97057.28;;;15.93;66.42
25855;BME280;13680;49.936;11.344;2022-07-03T00:51:51;97058.53;;;15.96;66.53
25855;BME280;13680;49.936;11.344;2022-07-03T00:54:20;97060.69;;;15.81;67.17
25855;BME280;13680;49.936;11.344;2022-07-03T00:56:50;97046.78;;;15.74;67.36
25855;BME280;13680;49.936;11.344;2022-07-03T00:59:17;97054.75;;;15.79;66.91
25855;BME280;13680;49.936;11.344;2022-07-03T01:01:44;97053.63;;;15.80;67.17
25855;BME280;13680;49.936;11.344;2022-07-03T01:07:01;97049.66;;;15.78;66.93
25855;BME280;13680;49.936;11.344;2022-07-03T01:12:23;97047.63;;;15.75;67.17
25855;BME280;13680;49.936;11.344;2022-07-03T01:15:05;97044.41;;;15.73;67.12
25855;BME280;13680;49.936;11.344;2022-07-03T01:17:38;97041.25;;;15.70;67.21
25855;BME280;13680;49.936;11.344;2022-07-03T01:20:05;97039.03;;;15.64;67.26
25855;BME280;13680;49.936;11.344;2022-07-03T01:22:34;97037.47;;;15.63;66.90
25855;BME280;13680;49.936;11.344;2022-07-03T01:27:37;97040.31;;;15.58;67.16
25855;BME280;13680;49.936;11.344;2022-07-03T01:30:08;97034.63;;;15.50;67.25
25855;BME280;13680;49.936;11.344;2022-07-03T01:32:41;97032.09;;;15.45;67.66
25855;BME280;13680;49.936;11.344;2022-07-03T01:35:12;97024.78;;;15.37;67.71
25855;BME280;13680;49.936;11.344;2022-07-03T01:37:39;97027.50;;;15.37;68.09
25855;BME280;13680;49.936;11.344;2022-07-03T01:40:06;97024.50;;;15.30;68.38
25855;BME280;13680;49.936;11.344;2022-07-03T01:42:36;97028.94;;;15.34;68.06
25855;BME280;13680;49.936;11.344;2022-07-03T01:45:08;97032.81;;;15.25;68.41
25855;BME280;13680;49.936;11.344;2022-07-03T01:47:34;97031.22;;;15.24;68.24
25855;BME280;13680;49.936;11.344;2022-07-03T01:50:01;97031.06;;;15.20;68.22
25855;BME280;13680;49.936;11.344;2022-07-03T01:52:30;97029.47;;;15.19;68.80
25855;BME280;13680;49.936;11.344;2022-07-03T01:55:01;97032.66;;;15.12;69.03
25855;BME280;13680;49.936;11.344;2022-07-03T01:57:39;97021.19;;;15.15;68.53
25855;BME280;13680;49.936;11.344;2022-07-03T02:00:06;97025.03;;;15.14;68.71
25855;BME280;13680;49.936;11.344;2022-07-03T02:02:33;97018.19;;;15.08;68.79
25855;BME280;13680;49.936;11.344;2022-07-03T02:05:08;97021.69;;;15.09;69.02
25855;BME280;13680;49.936;11.344;2022-07-03T02:07:46;97018.19;;;15.08;69.04
25855;BME280;13680;49.936;11.344;2022-07-03T02:10:15;97011.00;;;15.03;68.57
25855;BME280;13680;49.936;11.344;2022-07-03T02:12:49;97020.75;;;14.96;68.63
25855;BME280;13680;49.936;11.344;2022-07-03T02:15:18;97021.84;;;14.95;69.06
25855;BME280;13680;49.936;11.344;2022-07-03T02:17:47;97030.47;;;14.97;68.84
25855;BME280;13680;49.936;11.344;2022-07-03T02:20:15;97022.97;;;14.94;69.45
25855;BME280;13680;49.936;11.344;2022-07-03T02:22:47;97024.56;;;14.95;69.56
25855;BME280;13680;49.936;11.344;2022-07-03T02:27:56;97016.44;;;14.95;69.72
25855;BME280;13680;49.936;11.344;2022-07-03T02:30:23;97019.81;;;14.92;69.35
25855;BME280;13680;49.936;11.344;2022-07-03T02:32:51;97020.75;;;14.87;69.53
25855;BME280;13680;49.936;11.344;2022-07-03T02:35:22;97007.22;;;14.78;70.03
25855;BME280;13680;49.936;11.344;2022-07-03T02:40:41;97018.06;;;14.78;70.08
25855;BME280;13680;49.936;11.344;2022-07-03T02:43:23;97015.69;;;14.77;69.89
25855;BME280;13680;49.936;11.344;2022-07-03T02:46:20;97013.47;;;14.70;70.01
25855;BME280;13680;49.936;11.344;2022-07-03T02:49:17;97014.25;;;14.70;69.72
25855;BME280;13680;49.936;11.344;2022-07-03T02:51:52;97018.88;;;14.70;69.27
25855;BME280;13680;49.936;11.344;2022-07-03T02:54:24;97011.69;;;14.65;69.60
25855;BME280;13680;49.936;11.344;2022-07-03T02:59:57;97013.75;;;14.60;70.53
25855;BME280;13680;49.936;11.344;2022-07-03T03:04:58;97024.88;;;14.58;70.25
25855;BME280;13680;49.936;11.344;2022-07-03T03:07:34;97021.38;;;14.57;70.03
25855;BME280;13680;49.936;11.344;2022-07-03T03:10:00;97021.72;;;14.56;70.33
25855;BME280;13680;49.936;11.344;2022-07-03T03:12:31;97032.53;;;14.56;70.12
25855;BME280;13680;49.936;11.344;2022-07-03T03:15:01;97032.69;;;14.51;70.81
25855;BME280;13680;49.936;11.344;2022-07-03T03:17:34;97026.97;;;14.52;70.17
25855;BME280;13680;49.936;11.344;2022-07-03T03:20:02;97039.38;;;14.45;70.20
25855;BME280;13680;49.936;11.344;2022-07-03T03:22:44;97031.75;;;14.47;69.82
25855;BME280;13680;49.936;11.344;2022-07-03T03:25:16;97026.63;;;14.45;70.56
25855;BME280;13680;49.936;11.344;2022-07-03T03:27:42;97039.22;;;14.41;70.32
25855;BME280;13680;49.936;11.344;2022-07-03T03:30:08;97025.34;;;14.43;70.37
25855;BME280;13680;49.936;11.344;2022-07-03T03:32:35;97027.09;;;14.30;70.92
25855;BME280;13680;49.936;11.344;2022-07-03T03:35:01;97026.31;;;14.29;71.21
25855;BME280;13680;49.936;11.344;2022-07-03T03:37:27;97021.38;;;14.40;70.99
25855;BME280;13680;49.936;11.344;2022-07-03T03:39:52;97016.94;;;14.44;70.44
25855;BME280;13680;49.936;11.344;2022-07-03T03:42:17;97020.59;;;14.48;69.42
25855;BME280;13680;49.936;11.344;2022-07-03T03:44:43;97020.91;;;14.38;70.84
25855;BME280;13680;49.936;11.344;2022-07-03T03:47:08;97014.53;;;14.43;70.39
25855;BME280;13680;49.936;11.344;2022-07-03T03:49:34;97014.53;;;14.43;69.92
25855;BME280;13680;49.936;11.344;2022-07-03T03:51:59;97015.69;;;14.42;70.58
25855;BME280;13680;49.936;11.344;2022-07-03T03:54:25;97024.56;;;14.42;70.89
25855;BME280;13680;49.936;11.344;2022-07-03T03:56:50;97023.78;;;14.42;70.89
25855;BME280;13680;49.936;11.344;2022-07-03T03:59:15;97021.09;;;14.42;70.37
25855;BME280;13680;49.936;11.344;2022-07-03T04:01:41;97018.50;;;14.45;70.79
25855;BME280;13680;49.936;11.344;2022-07-03T04:04:06;97019.63;;;14.53;70.84
25855;BME280;13680;49.936;11.344;2022-07-03T04:06:31;97021.38;;;14.57;70.18
25855;BME280;13680;49.936;11.344;2022-07-03T04:08:57;97018.03;;;14.61;70.38
25855;BME280;13680;49.936;11.344;2022-07-03T04:11:22;97009.91;;;14.61;70.55
25855;BME280;13680;49.936;11.344;2022-07-03T04:13:47;97016.63;;;14.72;70.25
25855;BME280;13680;49.936;11.344;2022-07-03T04:16:13;97013.28;;;14.84;70.39
25855;BME280;13680;49.936;11.344;2022-07-03T04:18:38;97022.81;;;14.99;69.76
25855;BME280;13680;49.936;11.344;2022-07-03T04:21:04;97023.44;;;15.13;69.73
25855;BME280;13680;49.936;11.344;2022-07-03T04:23:29;97018.78;;;15.22;69.12
25855;BME280;13680;49.936;11.344;2022-07-03T04:25:55;97017.91;;;15.39;69.02
25855;BME280;13680;49.936;11.344;2022-07-03T04:28:20;97021.34;;;15.58;68.63
25855;BME280;13680;49.936;11.344;2022-07-03T04:30:46;97019.84;;;15.78;68.21
25855;BME280;13680;49.936;11.344;2022-07-03T04:33:11;97021.72;;;15.95;67.70
25855;BME280;13680;49.936;11.344;2022-07-03T04:35:37;97021.13;;;16.10;67.12
25855;BME280;13680;49.936;11.344;2022-07-03T04:38:03;97017.75;;;16.13;67.11
25855;BME280;13680;49.936;11.344;2022-07-03T04:40:29;97028.97;;;16.33;67.15
25855;BME280;13680;49.936;11.344;2022-07-03T04:42:54;97037.16;;;16.45;66.94
25855;BME280;13680;49.936;11.344;2022-07-03T04:45:20;97023.53;;;16.54;66.70
25855;BME280;13680;49.936;11.344;2022-07-03T04:47:45;97023.59;;;16.45;66.63
25855;BME280;13680;49.936;11.344;2022-07-03T04:50:10;97030.34;;;16.60;66.36
25855;BME280;13680;49.936;11.344;2022-07-03T04:52:36;97019.47;;;16.81;65.82
25855;BME280;13680;49.936;11.344;2022-07-03T04:55:01;97019.09;;;16.92;65.63
25855;BME280;13680;49.936;11.344;2022-07-03T04:57:27;97018.88;;;16.97;66.08
25855;BME280;13680;49.936;11.344;2022-07-03T04:59:53;97015.81;;;16.98;65.92
25855;BME280;13680;49.936;11.344;2022-07-03T05:02:19;97014.50;;;17.17;65.30
25855;BME280;13680;49.936;11.344;2022-07-03T05:04:44;97003.56;;;17.38;65.00
25855;BME280;13680;49.936;11.344;2022-07-03T05:07:09;97011.41;;;17.52;64.57
25855;BME280;13680;49.936;11.344;2022-07-03T05:09:35;97017.84;;;17.47;64.74
25855;BME280;13680;49.936;11.344;2022-07-03T05:12:00;97009.13;;;17.66;64.48
25855;BME280;13680;49.936;11.344;2022-07-03T05:14:25;97012.66;;;17.79;64.27
25855;BME280;13680;49.936;11.344;2022-07-03T05:16:51;97007.34;;;17.95;64.21
25855;BME280;13680;49.936;11.344;2022-07-03T05:19:16;97009.72;;;18.09;63.84
25855;BME280;13680;49.936;11.344;2022-07-03T05:21:41;97004.91;;;18.31;63.31
25855;BME280;13680;49.936;11.344;2022-07-03T05:24:07;97011.03;;;18.40;63.21
25855;BME280;13680;49.936;11.344;2022-07-03T05:26:32;97009.78;;;18.66;63.03
25855;BME280;13680;49.936;11.344;2022-07-03T05:28:58;97012.59;;;18.82;63.20
25855;BME280;13680;49.936;11.344;2022-07-03T05:31:23;97018.34;;;18.93;62.13
25855;BME280;13680;49.936;11.344;2022-07-03T05:33:49;97018.66;;;19.04;62.12
25855;BME280;13680;49.936;11.344;2022-07-03T05:36:15;97025.09;;;19.27;62.77
25855;BME280;13680;49.936;11.344;2022-07-03T05:38:40;97024.31;;;19.43;62.50
25855;BME280;13680;49.936;11.344;2022-07-03T05:41:24;97028.38;;;19.65;61.87
25855;BME280;13680;49.936;11.344;2022-07-03T05:43:49;97032.59;;;19.78;61.96
25855;BME280;13680;49.936;11.344;2022-07-03T05:46:15;97026.69;;;20.08;61.37
25855;BME280;13680;49.936;11.344;2022-07-03T05:48:40;97033.63;;;20.22;61.02
25855;BME280;13680;49.936;11.344;2022-07-03T05:51:05;97030.84;;;20.38;61.46
25855;BME280;13680;49.936;11.344;2022-07-03T05:53:31;97037.28;;;20.65;61.16
25855;BME280;13680;49.936;11.344;2022-07-03T05:55:57;97039.53;;;20.79;60.45
25855;BME280;13680;49.936;11.344;2022-07-03T05:58:23;97034.41;;;20.97;59.70
25855;BME280;13680;49.936;11.344;2022-07-03T06:00:48;97037.97;;;20.98;60.00
25855;BME280;13680;49.936;11.344;2022-07-03T06:03:13;97036.56;;;21.27;58.76
25855;BME280;13680;49.936;11.344;2022-07-03T06:05:39;97037.03;;;21.33;58.43
25855;BME280;13680;49.936;11.344;2022-07-03T06:08:05;97032.88;;;21.62;57.74
25855;BME280;13680;49.936;11.344;2022-07-03T06:10:31;97038.53;;;21.73;56.68
25855;BME280;13680;49.936;11.344;2022-07-03T06:12:57;97022.47;;;21.95;56.16
25855;BME280;13680;49.936;11.344;2022-07-03T06:15:23;97026.34;;;22.20;54.81
25855;BME280;13680;49.936;11.344;2022-07-03T06:17:48;97027.09;;;22.44;53.51
25855;BME280;13680;49.936;11.344;2022-07-03T06:20:14;97028.00;;;22.52;52.86
25855;BME280;13680;49.936;11.344;2022-07-03T06:22:40;97018.22;;;22.85;52.40
25855;BME280;13680;49.936;11.344;2022-07-03T06:25:06;97014.91;;;22.72;51.86
25855;BME280;13680;49.936;11.344;2022-07-03T06:27:32;97017.59;;;23.02;51.79
25855;BME280;13680;49.936;11.344;2022-07-03T06:29:58;97017.53;;;23.33;50.14
25855;BME280;13680;49.936;11.344;2022-07-03T06:32:23;97015.09;;;23.24;49.46
25855;BME280;13680;49.936;11.344;2022-07-03T06:34:49;97014.50;;;23.08;50.27
25855;BME280;13680;49.936;11.344;2022-07-03T06:37:14;97015.09;;;23.24;49.08
25855;BME280;13680;49.936;11.344;2022-07-03T06:39:40;96998.56;;;23.58;48.97
25855;BME280;13680;49.936;11.344;2022-07-03T06:42:06;97000.16;;;23.59;48.62
25855;BME280;13680;49.936;11.344;2022-07-03T06:44:32;97004.66;;;23.82;48.66
25855;BME280;13680;49.936;11.344;2022-07-03T06:46:57;97003.59;;;23.97;48.01
25855;BME280;13680;49.936;11.344;2022-07-03T06:49:23;97000.06;;;23.97;47.69
25855;BME280;13680;49.936;11.344;2022-07-03T06:51:49;97002.75;;;23.90;48.37
25855;BME280;13680;49.936;11.344;2022-07-03T06:54:15;97002.09;;;24.11;48.18
25855;BME280;13680;49.936;11.344;2022-07-03T06:56:40;97002.06;;;24.00;47.81
25855;BME280;13680;49.936;11.344;2022-07-03T06:59:07;96995.50;;;24.19;49.28
25855;BME280;13680;49.936;11.344;2022-07-03T07:01:33;96999.13;;;24.38;48.81
25855;BME280;13680;49.936;11.344;2022-07-03T07:03:58;96999.72;;;24.76;47.00
25855;BME280;13680;49.936;11.344;2022-07-03T07:06:24;97001.72;;;24.90;46.89
25855;BME280;13680;49.936;11.344;2022-07-03T07:08:49;96991.16;;;25.10;46.89
25855;BME280;13680;49.936;11.344;2022-07-03T07:11:15;96997.94;;;25.38;46.58
25855;BME280;13680;49.936;11.344;2022-07-03T07:13:40;97004.94;;;25.24;45.24
25855;BME280;13680;49.936;11.344;2022-07-03T07:16:06;97004.16;;;25.20;46.01
25855;BME280;13680;49.936;11.344;2022-07-03T07:18:31;97005.75;;;25.32;46.09
25855;BME280;13680;49.936;11.344;2022-07-03T07:20:56;96994.31;;;25.19;46.56
25855;BME280;13680;49.936;11.344;2022-07-03T07:23:22;96989.28;;;25.57;46.06
25855;BME280;13680;49.936;11.344;2022-07-03T07:25:47;96980.63;;;25.70;46.15
25855;BME280;13680;49.936;11.344;2022-07-03T07:28:13;96988.09;;;25.58;45.40
25855;BME280;13680;49.936;11.344;2022-07-03T07:30:38;97001.38;;;25.13;45.94
25855;BME280;13680;49.936;11.344;2022-07-03T07:33:07;96988.09;;;25.58;44.81
25855;BME280;13680;49.936;11.344;2022-07-03T07:35:32;96979.81;;;26.02;44.47
25855;BME280;13680;49.936;11.344;2022-07-03T07:37:58;96983.34;;;26.09;45.24
25855;BME280;13680;49.936;11.344;2022-07-03T07:40:23;96984.91;;;26.25;44.34
25855;BME280;13680;49.936;11.344;2022-07-03T07:42:48;96977.34;;;26.47;43.16
25855;BME280;13680;49.936;11.344;2022-07-03T07:45:14;96975.56;;;26.93;42.21
25855;BME280;13680;49.936;11.344;2022-07-03T07:47:39;96972.06;;;26.89;42.81
25855;BME280;13680;49.936;11.344;2022-07-03T07:50:05;96976.47;;;26.68;43.18
25855;BME280;13680;49.936;11.344;2022-07-03T07:52:31;96964.78;;;27.17;42.30
25855;BME280;13680;49.936;11.344;2022-07-03T07:54:56;96971.72;;;26.83;42.80
25855;BME280;13680;49.936;11.344;2022-07-03T07:57:21;96972.53;;;26.69;42.12
25855;BME280;13680;49.936;11.344;2022-07-03T07:59:47;96975.31;;;27.33;42.48
25855;BME280;13680;49.936;11.344;2022-07-03T08:02:12;96967.59;;;27.66;42.66
25855;BME280;13680;49.936;11.344;2022-07-03T08:04:56;96981.06;;;27.04;41.00
25855;BME280;13680;49.936;11.344;2022-07-03T08:07:40;96977.75;;;27.23;40.63
25855;BME280;13680;49.936;11.344;2022-07-03T08:10:05;96975.31;;;27.36;42.35
25855;BME280;13680;49.936;11.344;2022-07-03T08:12:31;96968.44;;;27.63;40.29
25855;BME280;13680;49.936;11.344;2022-07-03T08:14:56;96972.63;;;27.78;41.14
25855;BME280;13680;49.936;11.344;2022-07-03T08:17:22;96963.72;;;28.05;40.52
25855;BME280;13680;49.936;11.344;2022-07-03T08:19:47;96967.47;;;28.56;39.52
25855;BME280;13680;49.936;11.344;2022-07-03T08:22:12;96962.22;;;28.35;39.34
25855;BME280;13680;49.936;11.344;2022-07-03T08:24:37;96964.91;;;28.04;39.69
25855;BME280;13680;49.936;11.344;2022-07-03T08:27:04;96960.09;;;28.46;38.19
25855;BME280;13680;49.936;11.344;2022-07-03T08:29:30;96966.78;;;28.83;37.63
25855;BME280;13680;49.936;11.344;2022-07-03T08:31:55;96969.56;;;28.83;38.51
25855;BME280;13680;49.936;11.344;2022-07-03T08:34:22;96973.69;;;28.99;37.87
25855;BME280;13680;49.936;11.344;2022-07-03T08:36:47;96976.88;;;29.25;36.71
25855;BME280;13680;49.936;11.344;2022-07-03T08:39:13;96974.06;;;28.35;38.36
25855;BME280;13680;49.936;11.344;2022-07-03T08:41:40;96967.41;;;28.95;36.90
25855;BME280;13680;49.936;11.344;2022-07-03T08:44:07;96959.06;;;29.26;37.02
25855;BME280;13680;49.936;11.344;2022-07-03T08:46:34;96970.00;;;28.78;37.87
25855;BME280;13680;49.936;11.344;2022-07-03T08:49:00;96968.84;;;29.06;37.07
25855;BME280;13680;49.936;11.344;2022-07-03T08:51:26;96955.28;;;29.12;37.06
25855;BME280;13680;49.936;11.344;2022-07-03T08:53:53;96953.72;;;29.11;37.78
25855;BME280;13680;49.936;11.344;2022-07-03T08:56:22;96961.88;;;28.95;37.36
25855;BME280;13680;49.936;11.344;2022-07-03T08:58:48;96966.06;;;29.34;37.08
25855;BME280;13680;49.936;11.344;2022-07-03T09:01:18;96963.63;;;29.87;36.55
25855;BME280;13680;49.936;11.344;2022-07-03T09:03:44;96953.66;;;30.13;37.40
25855;BME280;13680;49.936;11.344;2022-07-03T09:06:12;96960.03;;;29.66;36.19
25855;BME280;13680;49.936;11.344;2022-07-03T09:08:38;96960.44;;;29.41;36.75
25855;BME280;13680;49.936;11.344;2022-07-03T09:11:03;96958.88;;;29.64;35.71
25855;BME280;13680;49.936;11.344;2022-07-03T09:13:29;96957.25;;;29.66;36.68
25855;BME280;13680;49.936;11.344;2022-07-03T09:15:55;96947.28;;;30.36;35.88
25855;BME280;13680;49.936;11.344;2022-07-03T09:18:37;96947.66;;;30.59;36.72
25855;BME280;13680;49.936;11.344;2022-07-03T09:21:03;96943.81;;;30.89;35.55
25855;BME280;13680;49.936;11.344;2022-07-03T09:23:35;96948.13;;;31.27;34.67
25855;BME280;13680;49.936;11.344;2022-07-03T09:26:02;96949.00;;;31.07;32.21
25855;BME280;13680;49.936;11.344;2022-07-03T09:28:44;96943.63;;;31.33;34.63
25855;BME280;13680;49.936;11.344;2022-07-03T09:31:14;96943.81;;;31.75;30.67
25855;BME280;13680;49.936;11.344;2022-07-03T09:36:22;96937.72;;;31.64;31.48
25855;BME280;13680;49.936;11.344;2022-07-03T09:38:48;96940.63;;;32.06;30.97
25855;BME280;13680;49.936;11.344;2022-07-03T09:41:14;96937.13;;;32.19;29.71
25855;BME280;13680;49.936;11.344;2022-07-03T09:43:43;96938.25;;;31.75;30.48
25855;BME280;13680;49.936;11.344;2022-07-03T09:46:09;96930.78;;;31.72;30.12
25855;BME280;13680;49.936;11.344;2022-07-03T09:48:40;96931.66;;;31.20;29.42
25855;BME280;13680;49.936;11.344;2022-07-03T09:51:16;96923.75;;;31.51;29.55
25855;BME280;13680;49.936;11.344;2022-07-03T09:53:59;96930.19;;;31.48;29.66
25855;BME280;13680;49.936;11.344;2022-07-03T09:56:28;96929.16;;;31.05;29.19
25855;BME280;13680;49.936;11.344;2022-07-03T10:01:36;96933.91;;;30.51;28.05
25855;BME280;13680;49.936;11.344;2022-07-03T10:04:15;96927.47;;;31.28;29.67
25855;BME280;13680;49.936;11.344;2022-07-03T10:06:52;96927.41;;;31.48;27.65
25855;BME280;13680;49.936;11.344;2022-07-03T10:09:20;96935.69;;;30.62;28.95
25855;BME280;13680;49.936;11.344;2022-07-03T10:11:46;96934.03;;;30.44;28.48
25855;BME280;13680;49.936;11.344;2022-07-03T10:14:17;96924.03;;;30.50;28.21
25855;BME280;13680;49.936;11.344;2022-07-03T10:16:43;96929.06;;;30.92;27.56
25855;BME280;13680;49.936;11.344;2022-07-03T10:19:21;96923.19;;;30.90;28.70
25855;BME280;13680;49.936;11.344;2022-07-03T10:21:53;96927.84;;;31.13;28.26
25855;BME280;13680;49.936;11.344;2022-07-03T10:24:21;96919.22;;;32.20;27.60
25855;BME280;13680;49.936;11.344;2022-07-03T10:26:48;96922.81;;;32.75;25.85
25855;BME280;13680;49.936;11.344;2022-07-03T10:29:14;96915.41;;;32.56;26.82
25855;BME280;13680;49.936;11.344;2022-07-03T10:31:43;96918.06;;;31.05;27.90
25855;BME280;13680;49.936;11.344;2022-07-03T10:34:10;96929.44;;;30.94;28.68
25855;BME280;13680;49.936;11.344;2022-07-03T10:36:36;96916.38;;;31.28;28.85
25855;BME280;13680;49.936;11.344;2022-07-03T10:39:06;96916.22;;;31.68;27.67
25855;BME280;13680;49.936;11.344;2022-07-03T10:41:40;96910.41;;;32.21;28.11
25855;BME280;13680;49.936;11.344;2022-07-03T10:44:25;96929.06;;;32.79;27.05
25855;BME280;13680;49.936;11.344;2022-07-03T10:47:36;96914.00;;;32.22;26.78
25855;BME280;13680;49.936;11.344;2022-07-03T10:50:11;96918.25;;;32.82;25.96
25855;BME280;13680;49.936;11.344;2022-07-03T10:52:38;96919.47;;;33.06;26.30
25855;BME280;13680;49.936;11.344;2022-07-03T10:55:04;96916.69;;;32.25;27.98
25855;BME280;13680;49.936;11.344;2022-07-03T10:57:32;96913.84;;;32.55;26.40
25855;BME280;13680;49.936;11.344;2022-07-03T10:59:57;96912.56;;;33.11;26.95
25855;BME280;13680;49.936;11.344;2022-07-03T11:07:31;96928.69;;;31.43;25.67
25855;BME280;13680;49.936;11.344;2022-07-03T11:13:04;96901.31;;;32.21;26.12
25855;BME280;13680;49.936;11.344;2022-07-03T11:15:54;96912.50;;;32.46;26.13
25855;BME280;13680;49.936;11.344;2022-07-03T11:25:41;96890.59;;;33.87;25.62
25855;BME280;13680;49.936;11.344;2022-07-03T11:28:07;96892.69;;;33.48;24.97
25855;BME280;13680;49.936;11.344;2022-07-03T11:30:33;96892.72;;;33.22;25.03
25855;BME280;13680;49.936;11.344;2022-07-03T11:32:59;96895.56;;;33.57;24.68
25855;BME280;13680;49.936;11.344;2022-07-03T11:35:44;96885.03;;;33.74;24.37
25855;BME280;13680;49.936;11.344;2022-07-03T11:38:22;96885.25;;;33.32;24.22
25855;BME280;13680;49.936;11.344;2022-07-03T11:40:50;96877.03;;;33.63;24.95
25855;BME280;13680;49.936;11.344;2022-07-03T11:43:16;96884.28;;;33.60;23.36
25855;BME280;13680;49.936;11.344;2022-07-03T11:45:41;96878.13;;;33.05;26.01
25855;BME280;13680;49.936;11.344;2022-07-03T11:48:33;96867.22;;;34.16;24.82
25855;BME280;13680;49.936;11.344;2022-07-03T11:51:03;96870.31;;;34.62;22.31
25855;BME280;13680;49.936;11.344;2022-07-03T11:53:33;96867.81;;;33.88;23.82
25855;BME280;13680;49.936;11.344;2022-07-03T11:56:09;96871.38;;;33.89;22.71
25855;BME280;13680;49.936;11.344;2022-07-03T11:58:51;96861.88;;;34.31;23.07
25855;BME280;13680;49.936;11.344;2022-07-03T12:09:33;96843.72;;;35.76;23.20
25855;BME280;13680;49.936;11.344;2022-07-03T12:12:11;96846.50;;;35.39;21.86
25855;BME280;13680;49.936;11.344;2022-07-03T12:14:50;96844.19;;;35.47;23.04
25855;BME280;13680;49.936;11.344;2022-07-03T12:17:20;96856.00;;;35.51;21.19
25855;BME280;13680;49.936;11.344;2022-07-03T12:19:57;96843.06;;;35.35;21.40
25855;BME280;13680;49.936;11.344;2022-07-03T12:22:34;96853.84;;;36.11;22.29
25855;BME280;13680;49.936;11.344;2022-07-03T12:27:27;96850.56;;;36.12;19.59
25855;BME280;13680;49.936;11.344;2022-07-03T12:29:52;96836.66;;;35.16;20.05
25855;BME280;13680;49.936;11.344;2022-07-03T12:32:18;96835.16;;;35.80;21.38
25855;BME280;13680;49.936;11.344;2022-07-03T12:34:44;96833.31;;;36.04;19.56
25855;BME280;13680;49.936;11.344;2022-07-03T12:37:09;96830.19;;;35.75;20.24
25855;BME280;13680;49.936;11.344;2022-07-03T12:39:45;96827.28;;;35.60;20.25
25855;BME280;13680;49.936;11.344;2022-07-03T12:42:29;96821.72;;;36.40;20.75
25855;BME280;13680;49.936;11.344;2022-07-03T12:47:22;96823.00;;;36.72;20.49
25855;BME280;13680;49.936;11.344;2022-07-03T12:50:03;96822.19;;;37.14;21.26
25855;BME280;13680;49.936;11.344;2022-07-03T12:52:33;96824.09;;;36.65;20.18
25855;BME280;13680;49.936;11.344;2022-07-03T12:55:00;96829.81;;;36.80;18.57
25855;BME280;13680;49.936;11.344;2022-07-03T12:57:26;96815.50;;;37.36;18.57
25855;BME280;13680;49.936;11.344;2022-07-03T13:00:12;96819.31;;;37.48;18.60
25855;BME280;13680;49.936;11.344;2022-07-03T13:02:46;96811.97;;;37.50;18.87
25855;BME280;13680;49.936;11.344;2022-07-03T13:05:17;96821.44;;;37.05;18.85
25855;BME280;13680;49.936;11.344;2022-07-03T13:07:51;96808.16;;;37.78;18.43
25855;BME280;13680;49.936;11.344;2022-07-03T13:10:19;96809.56;;;37.58;17.62
25855;BME280;13680;49.936;11.344;2022-07-03T13:12:52;96803.97;;;37.10;19.92
25855;BME280;13680;49.936;11.344;2022-07-03T13:15:19;96803.81;;;37.38;18.16
25855;BME280;13680;49.936;11.344;2022-07-03T13:20:19;96803.59;;;38.55;18.29
25855;BME280;13680;49.936;11.344;2022-07-03T13:22:47;96814.97;;;38.31;17.71
25855;BME280;13680;49.936;11.344;2022-07-03T13:25:13;96797.47;;;38.72;17.68
25855;BME280;13680;49.936;11.344;2022-07-03T13:27:38;96803.94;;;36.52;18.27
25855;BME280;13680;49.936;11.344;2022-07-03T13:30:04;96799.31;;;37.31;19.01
25855;BME280;13680;49.936;11.344;2022-07-03T13:32:30;96800.34;;;37.82;18.94
25855;BME280;13680;49.936;11.344;2022-07-03T13:34:55;96815.09;;;36.61;18.48
25855;BME280;13680;49.936;11.344;2022-07-03T13:37:20;96803.97;;;37.34;18.69
25855;BME280;13680;49.936;11.344;2022-07-03T13:39:46;96799.28;;;37.94;17.85
25855;BME280;13680;49.936;11.344;2022-07-03T13:42:11;96789.94;;;37.73;17.90
25855;BME280;13680;49.936;11.344;2022-07-03T13:44:36;96797.09;;;38.64;17.00
25855;BME280;13680;49.936;11.344;2022-07-03T13:47:04;96793.22;;;38.76;17.55
25855;BME280;13680;49.936;11.344;2022-07-03T13:49:33;96792.03;;;39.04;17.47
25855;BME280;13680;49.936;11.344;2022-07-03T13:51:59;96787.47;;;38.35;18.42